Time;durP1;ratioP1;P1;durP2;ratioP2;P2;SDS_P1;SDS_P2;PMS_P1;PMS_P2;Temp;Humidity;BMP_temperature;BMP_pressure;BME280_temperature;BME280_humidity;BME280_pressure;Samples;Min_cycle;Max_cycle;Signal;HPM_P1;HPM_P2
2023/07/15 00:01:21;;;;;;;;;41.50;37.25;;;;;25.96;49.72;100421.31;6158219;23;47977;-75
2023/07/15 00:03:47;;;;;;;;;45.67;38.33;;;;;25.95;50.33;100421.53;6185345;23;45264;-75
2023/07/15 00:06:13;;;;;;;;;40.75;36.25;;;;;25.87;50.95;100420.56;6184210;23;45246;-75
2023/07/15 00:08:38;;;;;;;;;5.00;4.00;;;;;25.88;50.99;100424.94;6158864;23;45238;-76
2023/07/15 00:11:05;;;;;;;;;8.50;8.50;;;;;25.78;52.05;100413.50;6185100;23;45257;-75
2023/07/15 00:13:30;;;;;;;;;7.50;7.50;;;;;25.79;52.12;100420.59;6183793;23;45321;-76
2023/07/15 00:15:57;;;;;;;;;7.00;7.00;;;;;25.72;52.93;100416.91;6185847;23;45289;-76
2023/07/15 00:18:23;;;;;;;;;16.67;16.67;;;;;25.70;52.66;100420.84;6185308;23;45372;-76
2023/07/15 00:20:49;;;;;;;;;12.75;12.00;;;;;25.62;53.02;100416.28;6183761;23;45405;-75
2023/07/15 00:23:22;;;;;;;;;1.00;1.00;;;;;25.63;53.93;100422.56;6185899;23;45290;-76
2023/07/15 00:25:50;;;;;;;;;6.25;5.25;;;;;25.57;53.63;100415.16;6186206;23;45341;-76
2023/07/15 00:28:16;;;;;;;;;2.00;2.00;;;;;25.57;53.71;100420.56;6185320;23;45256;-76
2023/07/15 00:30:41;;;;;;;;;12.00;11.00;;;;;25.50;54.01;100416.88;6185953;23;45287;-76
2023/07/15 00:33:13;;;;;;;;;1.75;1.75;;;;;25.51;53.79;100432.13;6185704;23;45151;-76
2023/07/15 00:35:38;;;;;;;;;1.25;1.25;;;;;25.49;56.37;100432.25;6184381;23;45349;-76
2023/07/15 00:38:04;;;;;;;;;1.50;1.50;;;;;25.38;54.95;100428.09;6185172;23;45413;-76
2023/07/15 00:40:36;;;;;;;;;1.75;0.75;;;;;25.37;54.86;100430.97;6185909;23;45416;-76
2023/07/15 00:43:39;;;;;;;;;0.25;0.25;;;;;25.34;55.05;100437.59;6183003;23;45212;-76
2023/07/15 00:46:16;;;;;;;;;1.75;1.75;;;;;25.31;56.06;100428.97;6185287;23;45505;-76
2023/07/15 00:48:57;;;;;;;;;8.00;8.00;;;;;25.23;56.13;100429.00;6183769;23;45621;-76
2023/07/15 00:51:24;;;;;;;;;10.25;10.00;;;;;25.21;56.75;100442.72;6185349;23;46248;-75
2023/07/15 00:53:50;;;;;;;;;9.75;9.00;;;;;25.12;57.15;100432.09;6185312;23;45176;-75
2023/07/15 00:56:16;;;;;;;;;11.25;11.25;;;;;25.16;58.24;100441.56;6184867;23;45299;-75
2023/07/15 00:58:42;;;;;;;;;27.00;27.00;;;;;25.07;58.88;100429.06;6185649;23;45630;-75
2023/07/15 01:01:11;;;;;;;;;17.25;17.00;;;;;24.76;57.84;100386.53;6183566;23;45607;-75
2023/07/15 01:03:39;;;;;;;;;22.00;22.00;;;;;25.07;59.89;100445.28;6185651;23;45227;-75
2023/07/15 01:06:06;;;;;;;;;27.25;27.25;;;;;24.89;59.37;100423.88;6185518;23;45254;-75
2023/07/15 01:08:31;;;;;;;;;2.75;2.75;;;;;24.97;59.29;100434.66;6185652;23;45262;-75
2023/07/15 01:10:56;;;;;;;;;32.00;31.33;;;;;24.88;59.72;100425.75;6185179;23;45405;-75
2023/07/15 01:13:22;;;;;;;;;33.00;32.00;;;;;24.92;59.72;100428.09;6185069;23;45461;-75
2023/07/15 01:15:47;;;;;;;;;29.00;29.00;;;;;24.82;60.41;100417.47;6185958;23;45262;-75
2023/07/15 01:18:13;;;;;;;;;34.33;33.00;;;;;24.92;60.35;100434.34;6183797;23;45285;-76
2023/07/15 01:20:38;;;;;;;;;21.67;21.67;;;;;24.91;60.57;100440.78;6158841;23;47027;-76
2023/07/15 01:23:03;;;;;;;;;29.67;29.33;;;;;24.91;60.18;100443.47;6183487;23;45835;-75
2023/07/15 01:25:29;;;;;;;;;29.75;29.50;;;;;24.91;61.00;100439.94;6183702;23;45351;-75
2023/07/15 01:27:54;;;;;;;;;39.33;35.67;;;;;24.81;60.28;100437.38;6184306;23;52387;-76
2023/07/15 01:30:19;;;;;;;;;30.33;30.33;;;;;24.68;60.42;100435.22;6185376;23;45449;-75
2023/07/15 01:32:45;;;;;;;;;39.00;35.50;;;;;24.72;60.99;100433.88;6183387;23;45253;-76
2023/07/15 01:35:10;;;;;;;;;26.50;26.50;;;;;24.66;61.80;100434.56;6185799;23;45208;-76
2023/07/15 01:37:35;;;;;;;;;24.75;24.75;;;;;24.65;61.87;100426.59;6158316;23;45770;-76
2023/07/15 01:40:03;;;;;;;;;25.00;25.00;;;;;24.65;62.03;100432.84;6183071;23;45391;-76
2023/07/15 01:42:28;;;;;;;;;26.50;26.50;;;;;24.65;62.51;100435.56;6185078;23;45226;-76
2023/07/15 01:44:54;;;;;;;;;25.50;25.50;;;;;24.63;63.17;100431.34;6186100;23;45269;-76
2023/07/15 01:47:20;;;;;;;;;22.50;22.50;;;;;24.57;62.89;100411.25;6183555;23;45547;-76
2023/07/15 01:49:45;;;;;;;;;24.25;24.25;;;;;24.57;63.37;100422.06;6185705;23;45476;-76
2023/07/15 01:52:10;;;;;;;;;23.50;23.50;;;;;24.56;63.63;100404.16;6185048;23;45387;-76
2023/07/15 01:54:36;;;;;;;;;22.00;22.00;;;;;24.56;64.08;100414.13;6185778;23;45246;-76
2023/07/15 01:57:01;;;;;;;;;22.75;22.75;;;;;24.47;65.04;100401.63;6184679;23;45323;-76
2023/07/15 01:59:27;;;;;;;;;14.75;14.75;;;;;24.41;65.58;100386.91;6184915;23;47433;-76
2023/07/15 02:01:56;;;;;;;;;18.25;18.25;;;;;24.47;65.03;100394.38;6185929;23;45412;-77
2023/07/15 02:04:21;;;;;;;;;16.25;16.00;;;;;24.38;66.45;100381.03;6185588;23;45332;-76
2023/07/15 02:06:47;;;;;;;;;15.75;15.75;;;;;24.36;65.83;100379.34;6185875;23;45211;-76
2023/07/15 02:09:12;;;;;;;;;17.50;17.50;;;;;24.32;65.91;100371.72;6185491;23;55565;-76
2023/07/15 02:11:38;;;;;;;;;15.25;15.25;;;;;24.43;66.86;100394.88;6185865;23;45433;-76
2023/07/15 02:14:03;;;;;;;;;12.00;10.50;;;;;24.38;66.92;100394.56;6184231;23;45659;-76
2023/07/15 02:16:28;;;;;;;;;16.25;16.25;;;;;24.34;68.04;100391.34;6185774;23;45138;-75
2023/07/15 02:18:54;;;;;;;;;15.00;15.00;;;;;24.26;67.60;100386.78;6185579;23;46363;-76
2023/07/15 02:21:19;;;;;;;;;14.75;14.75;;;;;24.33;68.43;100393.19;6183384;23;45289;-76
2023/07/15 02:23:45;;;;;;;;;17.00;17.00;;;;;24.29;69.26;100399.94;6188076;23;45365;-77
2023/07/15 02:26:10;;;;;;;;;18.50;18.50;;;;;24.26;69.20;100399.44;6188365;23;45182;-76
2023/07/15 02:28:36;;;;;;;;;16.75;16.75;;;;;24.19;69.66;100395.72;6186262;23;45380;-76
2023/07/15 02:31:01;;;;;;;;;16.25;16.25;;;;;24.21;70.54;100391.84;6185552;23;45324;-76
2023/07/15 02:33:26;;;;;;;;;11.50;10.00;;;;;24.22;71.22;100398.94;6185716;23;45270;-76
2023/07/15 02:35:52;;;;;;;;;12.00;12.00;;;;;24.18;71.27;100392.19;6185807;23;45201;-76
2023/07/15 02:38:18;;;;;;;;;9.25;9.25;;;;;24.18;71.99;100383.25;6185213;23;45378;-76
2023/07/15 02:40:43;;;;;;;;;6.50;6.50;;;;;24.16;72.18;100393.38;6183507;23;45305;-76
2023/07/15 02:43:08;;;;;;;;;12.25;12.25;;;;;24.18;71.86;100404.88;6183059;23;45412;-76
2023/07/15 02:45:34;;;;;;;;;8.50;6.75;;;;;24.07;72.55;100392.50;6185497;23;45389;-77
2023/07/15 02:48:00;;;;;;;;;12.00;12.00;;;;;24.12;72.45;100411.78;6184991;23;45348;-76
2023/07/15 02:50:25;;;;;;;;;7.25;7.25;;;;;24.10;72.41;100421.03;6183267;23;45339;-76
2023/07/15 02:52:51;;;;;;;;;6.25;6.25;;;;;24.00;73.81;100387.94;6183414;23;45251;-76
2023/07/15 02:55:16;;;;;;;;;4.75;3.75;;;;;24.08;73.13;100412.28;6184886;23;45650;-76
2023/07/15 02:57:41;;;;;;;;;7.25;7.00;;;;;24.11;72.80;100422.75;6184167;23;45199;-76
2023/07/15 03:00:15;;;;;;;;;9.75;4.25;;;;;24.04;73.88;100414.47;6184955;23;45270;-76
2023/07/15 03:02:44;;;;;;;;;5.25;5.25;;;;;24.06;73.55;100403.47;6185251;23;45420;-77
2023/07/15 03:05:10;;;;;;;;;3.75;3.75;;;;;23.99;73.93;100386.22;6184862;23;45259;-76
2023/07/15 03:07:36;;;;;;;;;2.00;2.00;;;;;24.07;73.95;100399.75;6184728;23;46493;-76
2023/07/15 03:10:03;;;;;;;;;1.00;1.00;;;;;24.03;74.50;100409.22;6185168;23;45291;-77
2023/07/15 03:12:28;;;;;;;;;2.25;2.25;;;;;24.04;73.92;100408.22;6183330;23;45305;-76
2023/07/15 03:14:54;;;;;;;;;2.50;2.50;;;;;24.03;74.98;100414.63;6186218;23;45298;-76
2023/07/15 03:17:19;;;;;;;;;1.67;1.67;;;;;23.99;74.60;100410.53;6183503;23;46175;-76
2023/07/15 03:19:45;;;;;;;;;3.00;2.33;;;;;23.85;75.11;100401.28;6184292;23;45310;-76
2023/07/15 03:22:10;;;;;;;;;1.33;1.33;;;;;23.97;74.89;100418.00;6186252;23;45381;-75
2023/07/15 03:24:36;;;;;;;;;1.67;1.67;;;;;23.95;74.97;100415.47;6159533;23;45391;-76
2023/07/15 03:27:02;;;;;;;;;1.00;1.00;;;;;23.76;75.75;100384.19;6158038;23;49419;-75
2023/07/15 03:29:27;;;;;;;;;3.00;2.33;;;;;23.83;76.41;100392.47;6184319;23;45235;-76
2023/07/15 03:31:53;;;;;;;;;1.67;1.67;;;;;23.72;76.90;100380.13;6186263;23;45658;-76
2023/07/15 03:34:19;;;;;;;;;2.00;1.67;;;;;23.75;77.53;100403.28;6186100;23;45498;-75
2023/07/15 03:36:44;;;;;;;;;2.33;2.33;;;;;23.80;78.12;100406.31;6185677;23;45349;-76
2023/07/15 03:39:10;;;;;;;;;3.50;3.00;;;;;23.80;78.16;100423.38;6186145;23;45224;-75
2023/07/15 03:41:36;;;;;;;;;2.67;2.67;;;;;23.75;78.49;100414.09;6185617;23;45409;-75
2023/07/15 03:44:03;;;;;;;;;3.00;1.33;;;;;23.78;78.37;100428.09;6184425;23;45537;-75
2023/07/15 03:46:28;;;;;;;;;2.33;2.33;;;;;23.76;78.52;100440.06;6185811;23;46010;-75
2023/07/15 03:48:53;;;;;;;;;2.75;2.75;;;;;23.71;79.43;100424.38;6185913;23;45189;-75
2023/07/15 03:51:19;;;;;;;;;2.33;2.33;;;;;23.73;78.71;100419.66;6185764;23;50227;-76
2023/07/15 03:53:44;;;;;;;;;4.50;4.50;;;;;23.70;79.72;100429.94;6184259;23;45571;-75
2023/07/15 03:56:09;;;;;;;;;2.33;2.33;;;;;23.69;79.76;100430.97;6184748;23;45263;-76
2023/07/15 03:58:34;;;;;;;;;3.33;3.33;;;;;23.60;78.88;100415.72;6185701;23;45306;-75
2023/07/15 04:01:00;;;;;;;;;5.33;5.33;;;;;23.56;80.41;100400.88;6184054;23;45240;-75
2023/07/15 04:03:26;;;;;;;;;4.50;4.50;;;;;23.60;80.02;100399.53;6185913;23;45449;-75
2023/07/15 04:05:51;;;;;;;;;6.00;6.00;;;;;23.53;80.16;100376.91;6183831;23;46741;-75
2023/07/15 04:08:16;;;;;;;;;8.00;8.00;;;;;23.60;80.56;100392.28;6185563;23;49948;-75
2023/07/15 04:10:45;;;;;;;;;7.75;7.75;;;;;23.66;80.34;100397.00;6186413;23;45136;-75
2023/07/15 04:13:10;;;;;;;;;5.00;5.00;;;;;23.61;80.20;100401.22;6185534;23;45389;-76
2023/07/15 04:15:36;;;;;;;;;7.00;7.00;;;;;23.61;80.63;100415.56;6186155;23;45608;-75
2023/07/15 04:18:01;;;;;;;;;7.25;7.25;;;;;23.60;80.83;100448.13;6185861;23;47299;-76
2023/07/15 04:20:26;;;;;;;;;9.25;9.25;;;;;23.59;81.63;100460.78;6186317;23;45344;-75
2023/07/15 04:22:52;;;;;;;;;0.25;0.25;;;;;23.59;80.51;100466.19;6183894;23;45441;-75
2023/07/15 04:25:17;;;;;;;;;0.00;0.00;;;;;23.53;80.51;100455.19;6184381;23;45410;-76
2023/07/15 04:27:42;;;;;;;;;11.25;10.75;;;;;23.47;81.83;100428.84;6184950;23;45441;-76
2023/07/15 04:30:11;;;;;;;;;8.75;8.75;;;;;23.44;80.76;100416.53;6159146;23;45811;-76
2023/07/15 04:32:37;;;;;;;;;11.00;11.00;;;;;23.45;81.22;100402.03;6185766;23;45222;-76
2023/07/15 04:35:03;;;;;;;;;9.50;9.50;;;;;23.57;81.01;100424.16;6185899;23;46461;-76
2023/07/15 04:37:30;;;;;;;;;11.25;10.50;;;;;23.55;81.53;100420.78;6185380;23;45416;-76
2023/07/15 04:39:55;;;;;;;;;12.50;12.00;;;;;23.48;81.84;100401.72;6185908;23;45244;-76
2023/07/15 04:42:20;;;;;;;;;8.00;8.00;;;;;23.44;83.10;100388.69;6185314;23;45152;-76
2023/07/15 04:44:46;;;;;;;;;7.75;7.75;;;;;23.49;81.57;100375.56;6185990;23;45186;-76
2023/07/15 04:47:12;;;;;;;;;9.00;8.00;;;;;23.42;81.72;100366.44;6183810;23;45278;-76
2023/07/15 04:49:37;;;;;;;;;11.00;11.00;;;;;23.45;81.89;100374.19;6184197;23;45479;-76
2023/07/15 04:52:03;;;;;;;;;12.25;12.25;;;;;23.46;82.36;100374.00;6185676;23;45333;-76
2023/07/15 04:54:28;;;;;;;;;9.50;9.50;;;;;23.39;82.48;100381.06;6185909;23;46473;-76
2023/07/15 04:56:54;;;;;;;;;13.50;13.50;;;;;23.40;81.95;100388.16;6185101;23;45407;-76
2023/07/15 04:59:19;;;;;;;;;5.00;5.00;;;;;23.34;82.68;100407.69;6184230;23;45283;-76
2023/07/15 05:01:44;;;;;;;;;8.00;8.00;;;;;23.32;81.73;100383.59;6184170;23;45271;-76
2023/07/15 05:04:10;;;;;;;;;7.25;7.25;;;;;23.43;81.75;100406.75;6185910;23;45351;-76
2023/07/15 05:06:36;;;;;;;;;8.00;8.00;;;;;23.37;82.47;100393.88;6185546;23;45260;-76
2023/07/15 05:09:04;;;;;;;;;11.50;11.25;;;;;23.41;82.69;100386.31;6186016;23;45445;-75
2023/07/15 05:11:30;;;;;;;;;10.25;10.25;;;;;23.40;82.79;100395.38;6185442;23;45380;-76
2023/07/15 05:13:55;;;;;;;;;11.75;11.50;;;;;23.42;82.21;100409.63;6183876;23;46795;-75
2023/07/15 05:16:20;;;;;;;;;5.50;5.50;;;;;23.34;82.20;100395.06;6185540;23;50902;-76
2023/07/15 05:18:46;;;;;;;;;9.75;8.50;;;;;23.37;83.27;100399.28;6162496;23;45289;-76
2023/07/15 05:21:11;;;;;;;;;10.25;10.25;;;;;23.29;82.31;100394.72;6185632;23;45773;-76
2023/07/15 05:23:36;;;;;;;;;10.50;10.50;;;;;23.33;83.04;100408.69;6185794;23;46539;-76
2023/07/15 05:26:02;;;;;;;;;10.25;10.25;;;;;23.20;82.36;100375.97;6185527;23;45509;-76
2023/07/15 05:28:30;;;;;;;;;9.75;9.75;;;;;23.32;83.05;100401.63;6186367;23;45400;-76
2023/07/15 05:31:00;;;;;;;;;12.75;11.50;;;;;23.30;83.16;100415.28;6185674;23;45523;-76
2023/07/15 05:33:25;;;;;;;;;11.00;11.00;;;;;23.32;84.60;100418.66;6186233;23;45276;-76
2023/07/15 05:35:51;;;;;;;;;9.75;9.75;;;;;23.28;81.25;100425.41;6185838;23;45227;-76
2023/07/15 05:38:16;;;;;;;;;4.00;3.00;;;;;23.18;79.80;100410.34;6185640;23;45358;-76
2023/07/15 05:40:42;;;;;;;;;5.00;3.67;;;;;23.16;79.03;100442.03;6185886;23;45507;-76
2023/07/15 05:43:10;;;;;;;;;4.00;2.00;;;;;23.09;77.99;100433.75;6185357;23;45456;-75
2023/07/15 05:45:36;;;;;;;;;5.00;3.00;;;;;23.18;77.71;100451.66;6184034;23;45382;-76
2023/07/15 05:48:01;;;;;;;;;7.50;5.25;;;;;23.15;78.87;100448.44;6185896;23;45293;-76
2023/07/15 05:50:29;;;;;;;;;3.67;3.67;;;;;23.19;77.73;100461.47;6183883;23;45903;-77
2023/07/15 05:52:55;;;;;;;;;4.00;4.00;;;;;23.19;77.12;100460.59;6182990;23;48078;-76
2023/07/15 05:55:20;;;;;;;;;4.25;4.25;;;;;23.13;76.63;100464.81;6185647;23;45227;-76
2023/07/15 05:57:45;;;;;;;;;3.00;3.00;;;;;22.97;76.27;100462.00;6185997;23;45255;-77
2023/07/15 06:00:11;;;;;;;;;3.67;3.67;;;;;23.08;77.78;100477.06;6185638;23;51429;-75
2023/07/15 06:02:38;;;;;;;;;3.00;3.00;;;;;23.02;75.38;100477.72;6185269;23;45489;-76
2023/07/15 06:05:04;;;;;;;;;2.33;2.33;;;;;23.03;74.58;100484.81;6185720;23;45254;-76
2023/07/15 06:07:29;;;;;;;;;2.33;2.33;;;;;23.04;76.25;100484.63;6185565;23;45309;-76
2023/07/15 06:09:55;;;;;;;;;2.50;2.50;;;;;23.02;77.53;100475.00;6184974;23;48562;-76
2023/07/15 06:12:20;;;;;;;;;4.25;4.25;;;;;22.97;75.55;100486.28;6184874;23;46249;-76
2023/07/15 06:14:45;;;;;;;;;6.25;5.25;;;;;22.97;74.32;100490.84;6185851;23;45294;-76
2023/07/15 06:17:11;;;;;;;;;11.00;11.00;;;;;22.86;72.63;100475.75;6158614;23;45515;-76
2023/07/15 06:19:36;;;;;;;;;4.75;4.75;;;;;22.88;74.05;100497.16;6185036;23;45458;-76
2023/07/15 06:22:01;;;;;;;;;6.25;5.25;;;;;22.78;76.48;100490.03;6157764;23;45557;-77
2023/07/15 06:24:27;;;;;;;;;3.33;3.00;;;;;22.88;75.29;100503.41;6185450;23;45182;-76
2023/07/15 06:26:52;;;;;;;;;3.25;3.25;;;;;22.77;73.85;100480.25;6183091;23;45176;-77
2023/07/15 06:29:17;;;;;;;;;4.75;4.75;;;;;22.84;72.89;100500.19;6185439;23;45403;-77
2023/07/15 06:31:43;;;;;;;;;9.75;8.25;;;;;22.78;73.10;100487.34;6158162;23;45540;-77
2023/07/15 06:34:09;;;;;;;;;3.50;3.50;;;;;22.86;74.91;100499.19;6185372;23;45262;-76
2023/07/15 06:36:35;;;;;;;;;7.50;6.00;;;;;22.78;71.70;100483.78;6158971;23;45381;-76
2023/07/15 06:39:01;;;;;;;;;4.25;4.25;;;;;22.73;73.88;100499.59;6184945;23;45323;-76
2023/07/15 06:41:26;;;;;;;;;4.25;4.25;;;;;22.93;73.49;100513.72;6182638;23;46200;-76
2023/07/15 06:43:51;;;;;;;;;4.75;4.75;;;;;22.95;73.55;100520.66;6182711;23;45254;-74
2023/07/15 06:46:16;;;;;;;;;3.50;3.50;;;;;23.04;76.53;100529.63;6185848;23;45648;-75
2023/07/15 06:48:43;;;;;;;;;4.00;3.50;;;;;23.08;73.71;100517.53;6186216;23;45617;-73
2023/07/15 06:51:10;;;;;;;;;4.75;3.00;;;;;23.16;74.66;100523.00;6186254;23;45362;-74
2023/07/15 06:53:35;;;;;;;;;3.75;3.75;;;;;23.14;73.40;100520.44;6186100;23;45309;-74
2023/07/15 06:56:01;;;;;;;;;4.00;4.00;;;;;23.10;73.38;100521.75;6185594;23;45306;-74
2023/07/15 06:58:26;;;;;;;;;15.50;15.25;;;;;23.09;70.04;100533.56;6186452;23;45356;-74
2023/07/15 07:00:51;;;;;;;;;10.25;10.25;;;;;23.00;71.41;100526.44;6186374;23;46391;-75
2023/07/15 07:03:17;;;;;;;;;4.75;4.75;;;;;22.96;74.65;100514.25;6185628;23;45159;-75
2023/07/15 07:05:42;;;;;;;;;3.25;3.25;;;;;22.91;76.41;100516.56;6186349;23;45295;-73
2023/07/15 07:08:09;;;;;;;;;4.50;4.50;;;;;22.96;78.48;100533.16;6159157;23;45227;-75
2023/07/15 07:10:34;;;;;;;;;6.00;6.00;;;;;22.94;74.62;100543.22;6186473;23;45198;-75
2023/07/15 07:12:59;;;;;;;;;4.75;4.75;;;;;22.78;73.79;100518.84;6185812;23;45423;-75
2023/07/15 07:15:27;;;;;;;;;5.25;5.25;;;;;22.74;73.16;100530.97;6186294;23;48433;-75
2023/07/15 07:17:52;;;;;;;;;5.50;5.50;;;;;22.80;73.75;100519.56;6185739;23;45335;-75
2023/07/15 07:20:17;;;;;;;;;3.50;3.50;;;;;22.87;76.49;100530.56;6185992;23;46238;-75
2023/07/15 07:22:43;;;;;;;;;2.75;2.75;;;;;22.93;73.67;100530.78;6186304;23;45222;-74
2023/07/15 07:25:09;;;;;;;;;3.00;3.00;;;;;23.06;74.52;100531.19;6184343;23;45370;-75
2023/07/15 07:27:34;;;;;;;;;4.00;4.00;;;;;22.98;74.90;100516.78;6183885;23;45495;-75
2023/07/15 07:29:59;;;;;;;;;3.67;2.33;;;;;23.15;77.04;100540.19;6186205;23;46103;-74
2023/07/15 07:32:25;;;;;;;;;4.00;3.33;;;;;23.13;74.55;100531.41;6185520;23;45250;-74
2023/07/15 07:34:51;;;;;;;;;2.75;2.50;;;;;22.98;76.45;100520.34;6186611;23;45336;-74
2023/07/15 07:37:16;;;;;;;;;4.33;3.33;;;;;23.04;76.48;100540.44;6184980;23;58256;-74
2023/07/15 07:39:41;;;;;;;;;2.50;2.50;;;;;23.09;77.22;100565.09;6188699;23;45385;-74
2023/07/15 07:42:08;;;;;;;;;2.50;2.50;;;;;23.05;77.47;100539.44;6189361;23;49523;-75
2023/07/15 07:44:33;;;;;;;;;5.50;3.50;;;;;23.08;74.43;100556.16;6190181;23;45239;-75
2023/07/15 07:46:59;;;;;;;;;4.00;2.67;;;;;23.14;74.54;100547.41;6190291;23;45191;-75
2023/07/15 07:49:24;;;;;;;;;4.33;3.33;;;;;23.12;76.59;100535.94;6189522;23;46630;-75
2023/07/15 07:51:49;;;;;;;;;4.50;4.50;;;;;23.20;73.85;100548.66;6162603;23;45288;-75
2023/07/15 07:54:15;;;;;;;;;14.25;14.25;;;;;23.15;70.92;100532.09;6188737;23;45462;-75
2023/07/15 07:56:40;;;;;;;;;5.50;4.50;;;;;23.30;72.58;100547.50;6185936;23;45596;-76
2023/07/15 07:59:05;;;;;;;;;4.25;4.25;;;;;23.28;71.93;100533.34;6186542;23;53476;-76
2023/07/15 08:01:34;;;;;;;;;6.00;4.50;;;;;23.45;74.53;100546.97;6183892;23;52398;-75
2023/07/15 08:04:00;;;;;;;;;2.33;2.33;;;;;23.44;75.08;100554.22;6184265;23;45294;-75
2023/07/15 08:06:25;;;;;;;;;4.67;4.67;;;;;23.46;72.40;100541.38;6185995;23;45443;-76
2023/07/15 08:08:51;;;;;;;;;10.50;10.50;;;;;23.49;71.81;100549.19;6186396;23;45538;-75
2023/07/15 08:11:16;;;;;;;;;3.25;3.25;;;;;23.44;71.60;100542.56;6186001;23;45293;-76
2023/07/15 08:13:42;;;;;;;;;4.25;4.25;;;;;23.49;71.14;100537.53;6187000;23;45376;-75
2023/07/15 08:16:26;;;;;;;;;17.75;17.75;;;;;23.56;70.31;100557.50;6185562;23;45345;-75
2023/07/15 08:18:52;;;;;;;;;5.75;5.75;;;;;23.60;72.10;100566.94;6186025;23;45267;-75
2023/07/15 08:21:17;;;;;;;;;7.50;7.50;;;;;23.56;71.30;100568.28;6185743;23;45234;-76
2023/07/15 08:23:42;;;;;;;;;11.00;11.00;;;;;23.43;69.69;100543.59;6186418;23;45195;-75
2023/07/15 08:26:08;;;;;;;;;10.75;9.25;;;;;23.67;70.93;100567.97;6185630;23;45316;-75
2023/07/15 08:28:33;;;;;;;;;12.75;12.75;;;;;23.60;70.27;100564.22;6183858;23;45301;-75
2023/07/15 08:30:58;;;;;;;;;14.75;13.75;;;;;23.73;70.92;100581.69;6185667;23;45199;-75
2023/07/15 08:33:24;;;;;;;;;15.50;15.50;;;;;23.71;70.98;100581.00;6186555;23;45488;-75
2023/07/15 08:35:49;;;;;;;;;14.25;13.75;;;;;23.71;69.20;100572.91;6183477;23;45924;-75
2023/07/15 08:38:14;;;;;;;;;13.50;13.50;;;;;23.82;69.75;100582.59;6185072;23;47434;-75
2023/07/15 08:40:40;;;;;;;;;15.50;15.50;;;;;23.74;67.87;100577.97;6185915;23;45308;-75
2023/07/15 08:43:06;;;;;;;;;16.50;15.50;;;;;23.71;67.66;100566.66;6185402;23;45163;-75
2023/07/15 08:45:34;;;;;;;;;10.75;10.75;;;;;23.65;69.06;100570.88;6184731;23;45220;-75
2023/07/15 08:48:00;;;;;;;;;15.00;15.00;;;;;23.62;67.18;100556.84;6185415;23;45358;-76
2023/07/15 08:50:31;;;;;;;;;26.25;24.50;;;;;23.59;66.91;100570.66;6184697;23;45305;-76
2023/07/15 08:53:00;;;;;;;;;12.75;12.75;;;;;23.53;69.64;100564.03;6185571;23;46088;-76
2023/07/15 08:55:28;;;;;;;;;13.00;13.00;;;;;23.63;70.46;100566.59;6158617;23;45306;-76
2023/07/15 08:57:54;;;;;;;;;15.25;15.25;;;;;23.73;68.65;100578.13;6185324;23;46651;-75
2023/07/15 09:00:19;;;;;;;;;12.00;12.00;;;;;23.78;69.09;100586.63;6184685;23;45269;-75
2023/07/15 09:02:44;;;;;;;;;12.75;12.75;;;;;23.80;68.04;100581.88;6184891;23;45436;-76
2023/07/15 09:05:10;;;;;;;;;12.75;12.75;;;;;23.85;69.26;100590.38;6184257;23;45385;-75
2023/07/15 09:07:59;;;;;;;;;15.00;15.00;;;;;23.90;68.45;100585.31;6185317;23;46197;-75
2023/07/15 09:10:28;;;;;;;;;15.75;14.50;;;;;23.82;68.41;100571.78;6183361;23;45293;-78
2023/07/15 09:12:54;;;;;;;;;12.50;12.50;;;;;23.70;67.69;100573.06;6156883;23;45203;-74
2023/07/15 09:15:21;;;;;;;;;18.50;16.50;;;;;23.75;67.73;100570.72;6185558;23;45260;-74
2023/07/15 09:17:56;;;;;;;;;21.75;21.75;;;;;23.85;68.24;100579.56;6184281;23;45282;-73
2023/07/15 09:20:24;;;;;;;;;18.00;18.00;;;;;23.92;70.32;100588.66;6183578;23;45408;-74
2023/07/15 09:22:57;;;;;;;;;16.00;16.00;;;;;23.97;68.13;100585.50;6183571;23;45357;-74
2023/07/15 09:25:24;;;;;;;;;20.75;20.75;;;;;24.01;66.48;100582.31;6183547;23;45509;-74
2023/07/15 09:27:49;;;;;;;;;19.00;19.00;;;;;24.13;67.43;100601.78;6184747;23;46703;-73
2023/07/15 09:30:15;;;;;;;;;10.25;10.25;;;;;24.14;65.90;100576.47;6184093;23;45366;-74
2023/07/15 09:32:41;;;;;;;;;24.50;24.50;;;;;24.34;66.08;100586.81;6183408;23;45483;-74
2023/07/15 09:35:07;;;;;;;;;8.75;8.75;;;;;24.45;65.40;100568.56;6183051;23;45411;-73
2023/07/15 09:37:33;;;;;;;;;24.00;24.00;;;;;24.67;64.60;100576.06;6183445;23;45286;-74
2023/07/15 09:40:08;;;;;;;;;24.75;24.50;;;;;24.71;64.34;100570.13;6184697;23;45285;-73
2023/07/15 09:42:53;;;;;;;;;27.25;27.25;;;;;25.00;64.25;100583.16;6183530;23;45374;-74
2023/07/15 09:45:36;;;;;;;;;28.75;28.50;;;;;25.32;64.02;100579.56;6184506;23;45176;-76
2023/07/15 09:48:09;;;;;;;;;21.25;21.25;;;;;25.70;60.99;100573.38;6182045;23;47877;-74
2023/07/15 09:50:36;;;;;;;;;9.25;9.25;;;;;25.92;59.30;100578.03;6183630;23;45389;-74
2023/07/15 09:53:02;;;;;;;;;3.50;3.50;;;;;25.81;58.50;100564.88;6184997;23;45283;-74
2023/07/15 09:55:30;;;;;;;;;7.50;6.50;;;;;26.25;59.22;100569.75;6158095;23;45464;-73
2023/07/15 09:58:23;;;;;;;;;11.33;11.33;;;;;26.45;56.77;100564.69;6184561;23;46341;-74
2023/07/15 10:01:04;;;;;;;;;2.75;2.75;;;;;26.64;58.20;100577.78;6182444;23;45359;-73
2023/07/15 10:03:41;;;;;;;;;39.00;36.00;;;;;26.70;56.31;100569.75;6185441;23;45670;-74
2023/07/15 10:06:07;;;;;;;;;29.00;25.25;;;;;26.78;56.36;100577.00;6184366;23;45498;-73
2023/07/15 10:08:34;;;;;;;;;123.33;123.33;;;;;26.83;56.82;100552.91;6183473;23;45444;-74
2023/07/15 10:11:00;;;;;;;;;5.50;4.25;;;;;27.41;56.87;100582.03;6184517;23;45276;-73
2023/07/15 10:13:26;;;;;;;;;37.50;32.50;;;;;27.53;53.79;100569.69;6188904;23;45417;-73
2023/07/15 10:15:52;;;;;;;;;102.25;102.25;;;;;27.67;53.86;100565.28;6185864;23;45697;-74
2023/07/15 10:18:18;;;;;;;;;47.33;37.33;;;;;27.93;53.60;100574.66;6188585;23;45429;-74
2023/07/15 10:20:57;;;;;;;;;121.00;118.75;;;;;27.93;52.91;100562.91;6186263;23;45269;-73
2023/07/15 10:23:35;;;;;;;;;54.20;42.20;;;;;28.05;49.84;100546.94;6185275;23;45223;-74
2023/07/15 10:26:00;;;;;;;;;68.00;56.20;;;;;27.78;50.54;100521.34;6185352;23;45322;-73
2023/07/15 10:28:29;;;;;;;;;68.00;53.75;;;;;27.33;49.23;100506.91;6186313;23;47070;-75
2023/07/15 10:31:07;;;;;;;;;61.80;51.40;;;;;27.22;49.25;100501.09;6188285;23;45330;-75
2023/07/15 10:33:34;;;;;;;;;80.80;62.00;;;;;27.24;50.38;100520.75;6185789;23;45324;-75
2023/07/15 10:36:03;;;;;;;;;70.60;58.00;;;;;27.31;49.65;100525.28;6182131;23;45494;-75
2023/07/15 10:38:31;;;;;;;;;71.60;59.20;;;;;27.45;49.47;100526.34;6184830;23;47305;-75
2023/07/15 10:41:04;;;;;;;;;69.80;58.20;;;;;27.45;50.93;100534.50;6182013;23;45524;-75
2023/07/15 10:43:33;;;;;;;;;64.20;51.80;;;;;27.53;50.14;100531.66;6185084;23;45199;-75
2023/07/15 10:58:36;;;;;;;;;299.50;295.25;;;;;27.79;51.85;100523.84;5132605;27;45346;-72
2023/07/15 11:01:03;;;;;;;;;68.60;56.00;;;;;28.06;49.43;100519.59;5102394;27;45474;-72
2023/07/15 11:03:31;;;;;;;;;120.40;79.80;;;;;28.19;48.18;100541.50;5101527;27;45381;-72
2023/07/15 11:06:01;;;;;;;;;278.00;63.40;;;;;28.22;46.42;100521.22;5107315;27;45326;-72
2023/07/15 11:08:27;;;;;;;;;91.60;68.40;;;;;28.23;46.70;100533.81;5110391;27;45651;-71
2023/07/15 11:10:59;;;;;;;;;97.20;67.80;;;;;28.26;47.24;100522.53;5096449;27;46608;-72
2023/07/15 11:13:25;;;;;;;;;69.80;56.00;;;;;28.34;47.75;100512.34;5113561;27;45499;-72
2023/07/15 11:15:51;;;;;;;;;68.40;56.40;;;;;28.51;49.43;100529.28;5115010;27;45418;-72
2023/07/15 11:18:19;;;;;;;;;1966.60;1931.20;;;;;28.56;45.26;100515.94;5113043;27;46373;-72
2023/07/15 11:20:48;;;;;;;;;226.80;101.00;;;;;28.56;46.85;100515.09;5105694;27;45342;-72
2023/07/15 11:23:15;;;;;;;;;232.40;108.80;;;;;28.55;46.58;100514.25;5108202;27;45400;-72
2023/07/15 11:25:41;;;;;;;;;226.80;64.40;;;;;28.62;45.01;100506.13;5108794;27;45249;-72
2023/07/15 11:28:07;;;;;;;;;380.00;77.00;;;;;28.62;45.81;100503.41;5093561;27;47177;-72